Search for airport 
image banner adimage banner ad
image banner ad

DNMN - Minna/Minna

Located in Minna, Nigeria

ICAO - DNMN, IATA - MXJ

Data provided by Airmate  

General information

Coordinates: N9°39'8" E6°27'44"
Elevation is 898 feet MSL.
 
View others Airports in Niger

Operational data

Open for public use
Current time UTC:
Current local time:
Weather
METAR: DNMN 312200Z 05009KT CAVOK 28/15 Q1012
TAF: TAF DNMN 312300Z 0100/0206 05007KT CAVOK PROB30 TEMPO 0102/0108 5000 HZ
View NOTAMs / SUP AIP / TFR affecting this airport [VIEW]
Communications frequencies: [VIEW]

Runways:

RWY identifierQFULength (ft)Width (ft)SurfaceLDA (ft)
0545°11153145ASP
23225°11155148

Airport contact information

Address: Minna Nigeria

Satellite view of DNMN